Time;durP1;ratioP1;P1;durP2;ratioP2;P2;SDS_P1;SDS_P2;PMS_P1;PMS_P2;Temp;Humidity;BMP_temperature;BMP_pressure;BME280_temperature;BME280_humidity;BME280_pressure;Samples;Min_cycle;Max_cycle;Signal;HPM_P1;HPM_P2
2022/01/16 00:04:09;;;;;;;42.00;25.38;;;1.20;99.90;;;;;;5015818;28;20120;-76
2022/01/16 00:06:36;;;;;;;40.25;24.35;;;1.20;99.90;;;;;;5014672;28;20021;-74
2022/01/16 00:09:02;;;;;;;38.92;24.13;;;1.20;99.90;;;;;;5014728;28;20030;-73
2022/01/16 00:11:28;;;;;;;39.72;23.85;;;1.20;99.90;;;;;;5014988;28;20078;-74
2022/01/16 00:13:54;;;;;;;40.38;24.65;;;1.10;99.90;;;;;;5015512;28;20105;-73
2022/01/16 00:16:22;;;;;;;34.35;22.27;;;1.20;99.90;;;;;;5025072;28;20109;-75
2022/01/16 00:18:52;;;;;;;48.72;27.30;;;1.20;99.90;;;;;;5018194;28;20063;-74
2022/01/16 00:21:30;;;;;;;36.95;22.40;;;1.20;99.90;;;;;;5014355;28;20014;-73
2022/01/16 00:23:55;;;;;;;32.03;20.52;;;1.30;99.90;;;;;;5019542;28;20029;-73
2022/01/16 00:26:22;;;;;;;37.45;21.90;;;1.20;99.90;;;;;;5014535;28;20478;-75
2022/01/16 00:28:49;;;;;;;35.83;22.65;;;1.20;99.90;;;;;;5013708;28;20038;-74
2022/01/16 00:31:19;;;;;;;35.65;21.30;;;1.20;99.90;;;;;;5014079;28;20540;-74
2022/01/16 00:33:45;;;;;;;33.92;21.60;;;1.20;99.90;;;;;;5014979;28;20026;-73
2022/01/16 00:36:14;;;;;;;35.35;21.67;;;1.20;99.90;;;;;;5014417;28;20029;-76
2022/01/16 00:38:42;;;;;;;34.60;22.13;;;1.10;99.90;;;;;;5014983;28;20026;-72
2022/01/16 00:41:08;;;;;;;37.10;21.55;;;1.10;99.90;;;;;;5012163;28;20037;-73
2022/01/16 00:43:34;;;;;;;34.00;21.98;;;1.10;99.90;;;;;;5014224;28;20398;-72
2022/01/16 00:46:00;;;;;;;33.22;21.15;;;1.10;99.90;;;;;;5014086;28;20082;-72
2022/01/16 00:48:25;;;;;;;34.13;21.42;;;1.00;99.90;;;;;;5016175;28;20041;-73
2022/01/16 00:50:51;;;;;;;33.42;21.42;;;1.00;99.90;;;;;;5018617;28;20100;-73
2022/01/16 00:53:16;;;;;;;32.67;20.65;;;1.10;99.90;;;;;;5017273;28;20425;-73
2022/01/16 00:55:42;;;;;;;39.58;23.65;;;1.10;99.90;;;;;;5014725;28;20042;-71
2022/01/16 00:58:08;;;;;;;36.30;21.95;;;1.00;99.90;;;;;;5014825;28;20030;-73
2022/01/16 01:00:34;;;;;;;37.97;23.33;;;1.10;99.90;;;;;;5015651;28;20034;-73
2022/01/16 01:03:00;;;;;;;37.25;22.70;;;1.10;99.90;;;;;;5017797;28;20394;-74
2022/01/16 01:05:26;;;;;;;34.72;22.45;;;1.10;99.90;;;;;;5018331;28;20089;-74
2022/01/16 01:07:53;;;;;;;39.38;24.17;;;1.20;99.90;;;;;;5018888;28;20048;-73
2022/01/16 01:10:19;;;;;;;37.63;22.83;;;1.10;99.90;;;;;;5017676;28;20082;-74
2022/01/16 01:12:54;;;;;;;37.20;23.60;;;1.10;99.90;;;;;;5016939;28;20053;-74
2022/01/16 01:15:21;;;;;;;37.97;23.50;;;1.10;99.90;;;;;;5019022;28;20037;-74
2022/01/16 01:17:48;;;;;;;34.05;22.17;;;1.00;99.90;;;;;;5019271;28;20045;-73
2022/01/16 01:20:17;;;;;;;33.30;22.33;;;1.00;99.90;;;;;;5017542;28;20046;-73
2022/01/16 01:22:44;;;;;;;32.30;20.55;;;1.00;99.90;;;;;;5018184;28;20441;-73
2022/01/16 01:25:13;;;;;;;41.20;22.80;;;1.00;99.90;;;;;;5015303;28;20029;-75
2022/01/16 01:27:41;;;;;;;37.63;23.88;;;1.00;99.90;;;;;;5014203;28;20053;-74
2022/01/16 01:30:09;;;;;;;39.78;23.05;;;1.00;99.90;;;;;;5014117;28;20109;-73
2022/01/16 01:32:37;;;;;;;41.42;24.17;;;1.00;99.90;;;;;;5013867;28;20160;-74
2022/01/16 01:35:04;;;;;;;38.35;23.63;;;1.00;99.90;;;;;;5014137;28;20152;-74
2022/01/16 01:37:30;;;;;;;34.33;22.45;;;1.00;99.90;;;;;;5013611;28;20026;-73
2022/01/16 01:39:55;;;;;;;38.35;22.38;;;1.00;99.90;;;;;;5012790;28;20060;-72
2022/01/16 01:42:23;;;;;;;41.53;25.27;;;1.00;99.90;;;;;;5011864;28;20478;-73
2022/01/16 01:53:01;;;;;;;40.85;24.08;;;1.00;99.90;;;;;;5013596;28;20037;-73
2022/01/16 01:55:27;;;;;;;35.55;21.70;;;1.00;99.90;;;;;;5013587;28;20022;-74
2022/01/16 01:57:53;;;;;;;38.80;23.60;;;1.00;99.90;;;;;;5013090;28;20034;-72
2022/01/16 02:00:19;;;;;;;38.33;24.35;;;1.00;99.90;;;;;;5013298;28;20053;-72
2022/01/16 02:03:10;;;;;;;38.97;24.35;;;1.00;99.90;;;;;;5011815;28;20095;-72
2022/01/16 02:05:36;;;;;;;38.50;23.08;;;1.10;99.90;;;;;;5013435;28;20022;-73
2022/01/16 02:08:06;;;;;;;38.08;23.27;;;1.10;99.90;;;;;;5013209;28;20034;-72
2022/01/16 02:10:32;;;;;;;39.15;22.92;;;1.10;99.90;;;;;;5013809;28;20460;-72
2022/01/16 02:13:03;;;;;;;41.78;24.25;;;1.10;99.90;;;;;;5014241;28;20697;-74
2022/01/16 02:15:40;;;;;;;38.80;23.40;;;1.10;99.90;;;;;;5013430;28;20054;-73
2022/01/16 02:31:46;;;;;;;41.55;24.58;;;1.00;99.90;;;;;;5036570;28;20061;-73
2022/01/16 02:37:01;;;;;;;34.72;21.65;;;1.00;99.90;;;;;;5015397;28;20509;-73
2022/01/16 02:39:29;;;;;;;41.85;24.73;;;1.00;99.90;;;;;;5016303;28;20026;-74
2022/01/16 02:41:57;;;;;;;39.88;23.13;;;1.00;99.90;;;;;;5021627;28;20045;-72
2022/01/16 02:46:49;;;;;;;36.75;22.60;;;0.90;99.90;;;;;;5022918;28;20033;-72
2022/01/16 02:49:23;;;;;;;44.63;23.80;;;0.90;99.90;;;;;;5023668;28;20366;-71
2022/01/16 02:51:55;;;;;;;39.17;24.55;;;0.90;99.90;;;;;;5019615;28;20024;-72
2022/01/16 02:54:22;;;;;;;41.08;24.27;;;0.80;99.90;;;;;;5002594;28;20030;-72
2022/01/16 02:56:48;;;;;;;42.00;24.00;;;0.80;99.90;;;;;;5021063;28;20034;-72
2022/01/16 02:59:15;;;;;;;43.03;25.58;;;0.80;99.90;;;;;;5021205;28;20030;-74
2022/01/16 03:01:41;;;;;;;50.08;27.27;;;0.70;99.90;;;;;;5030129;28;20025;-72
2022/01/16 03:04:07;;;;;;;44.55;26.17;;;0.70;99.90;;;;;;5032843;28;20073;-74
2022/01/16 03:06:33;;;;;;;46.78;26.55;;;0.70;99.90;;;;;;5030918;28;20049;-72
2022/01/16 03:08:59;;;;;;;42.95;25.88;;;0.80;99.90;;;;;;5026078;28;20477;-73
2022/01/16 03:11:34;;;;;;;45.05;24.40;;;0.80;99.90;;;;;;5018899;28;20072;-72
2022/01/16 03:14:01;;;;;;;42.03;24.73;;;0.80;99.90;;;;;;5019314;28;20018;-72
2022/01/16 03:16:26;;;;;;;40.08;24.05;;;0.70;99.90;;;;;;5017001;28;20049;-71
2022/01/16 03:22:02;;;;;;;44.22;25.42;;;0.80;99.90;;;;;;4978692;28;20517;-72
2022/01/16 03:24:33;;;;;;;;;;;0.80;99.90;;;;;;5015373;28;20014;-72
2022/01/16 03:27:05;;;;;;;39.85;24.10;;;0.80;99.90;;;;;;5028748;28;19920;-72
2022/01/16 03:29:31;;;;;;;43.45;23.60;;;0.80;99.90;;;;;;5034872;22;20140;-77
2022/01/16 03:31:58;;;;;;;36.05;23.77;;;0.80;99.90;;;;;;5014644;28;20037;-77
2022/01/16 03:34:24;;;;;;;45.33;23.38;;;0.80;99.90;;;;;;5014034;28;20052;-77
2022/01/16 03:36:50;;;;;;;40.17;23.67;;;0.80;99.90;;;;;;5015028;28;20508;-77
2022/01/16 03:39:16;;;;;;;41.35;23.35;;;0.80;99.90;;;;;;5015021;28;20087;-77
2022/01/16 03:41:42;;;;;;;43.33;24.45;;;0.90;99.90;;;;;;5015252;28;20069;-77
2022/01/16 03:44:09;;;;;;;38.78;23.33;;;0.80;99.90;;;;;;5015077;28;20080;-77
2022/01/16 03:46:37;;;;;;;42.90;22.50;;;0.90;99.90;;;;;;5014817;28;20098;-77
2022/01/16 03:49:25;;;;;;;37.22;23.20;;;0.80;99.90;;;;;;5017369;28;20018;-78
2022/01/16 03:51:54;;;;;;;36.90;23.55;;;0.90;99.90;;;;;;5014916;28;20113;-76
2022/01/16 03:54:23;;;;;;;37.15;22.25;;;0.90;99.90;;;;;;5014750;28;20084;-76
2022/01/16 03:56:49;;;;;;;34.80;20.83;;;0.80;99.90;;;;;;5030423;28;20036;-76
2022/01/16 03:59:16;;;;;;;33.50;20.88;;;0.90;99.90;;;;;;5017143;28;20030;-76
2022/01/16 04:01:41;;;;;;;37.55;21.80;;;0.90;99.90;;;;;;5014310;28;20113;-76
2022/01/16 04:04:07;;;;;;;33.88;20.83;;;0.90;99.90;;;;;;5014235;28;20101;-76
2022/01/16 04:06:33;;;;;;;33.00;21.98;;;0.80;99.90;;;;;;5014114;28;20041;-76
2022/01/16 04:09:00;;;;;;;36.83;22.15;;;0.80;99.90;;;;;;5014239;28;20029;-77
2022/01/16 04:11:27;;;;;;;37.78;23.63;;;0.80;99.90;;;;;;5014092;28;20026;-77
2022/01/16 04:14:02;;;;;;;33.40;22.15;;;0.80;99.90;;;;;;5013977;28;20505;-76
2022/01/16 04:16:28;;;;;;;34.28;22.60;;;0.90;99.90;;;;;;5012783;28;20026;-76
2022/01/16 04:18:54;;;;;;;36.55;23.10;;;0.90;99.90;;;;;;5014301;28;20037;-77
2022/01/16 04:21:23;;;;;;;34.40;20.58;;;0.90;99.90;;;;;;5012689;28;20037;-77
2022/01/16 04:23:50;;;;;;;30.38;20.30;;;0.90;99.90;;;;;;5013926;28;20033;-77
2022/01/16 04:26:18;;;;;;;35.50;21.40;;;0.90;99.90;;;;;;5013846;28;20122;-77
2022/01/16 04:28:46;;;;;;;34.78;22.58;;;0.90;99.90;;;;;;5013753;28;20095;-77
2022/01/16 04:31:12;;;;;;;35.75;22.10;;;0.90;99.90;;;;;;5014129;28;20030;-78
2022/01/16 04:33:37;;;;;;;34.90;21.73;;;0.90;99.90;;;;;;5013751;28;20025;-77
2022/01/16 04:36:03;;;;;;;33.83;20.67;;;0.90;99.90;;;;;;5014052;28;20030;-78
2022/01/16 04:38:29;;;;;;;35.03;22.35;;;0.90;99.90;;;;;;5013814;28;20037;-77
2022/01/16 04:43:47;;;;;;;34.85;21.40;;;1.10;99.90;;;;;;5014965;28;20040;-77
2022/01/16 04:46:22;;;;;;;32.03;21.98;;;1.10;99.90;;;;;;5015344;28;20033;-76
2022/01/16 04:48:48;;;;;;;32.15;20.02;;;1.00;99.90;;;;;;5012480;28;20022;-77
2022/01/16 04:51:14;;;;;;;31.48;21.00;;;1.10;99.90;;;;;;5013769;28;20033;-77
2022/01/16 04:53:41;;;;;;;29.80;18.95;;;1.10;99.90;;;;;;5012371;28;20022;-78
2022/01/16 04:56:07;;;;;;;33.72;20.02;;;1.00;99.90;;;;;;5013425;28;20026;-77
2022/01/16 04:58:34;;;;;;;42.15;24.35;;;1.00;99.90;;;;;;5013402;28;20097;-77
2022/01/16 05:01:00;;;;;;;33.78;22.33;;;0.90;99.90;;;;;;5011650;28;20037;-78
2022/01/16 05:03:27;;;;;;;37.55;21.67;;;0.80;99.90;;;;;;5026216;28;20075;-77
2022/01/16 05:05:54;;;;;;;38.05;21.92;;;0.80;99.90;;;;;;5019932;28;20041;-78
2022/01/16 05:08:20;;;;;;;37.05;22.80;;;0.80;99.90;;;;;;5013218;28;20030;-77
2022/01/16 05:10:46;;;;;;;32.97;21.33;;;0.70;99.90;;;;;;5013225;28;20022;-77
2022/01/16 05:18:35;;;;;;;30.92;18.02;;;0.90;99.90;;;;;;5016102;28;20112;-77
2022/01/16 05:21:01;;;;;;;33.72;20.77;;;0.80;99.90;;;;;;5016155;28;20026;-77
2022/01/16 05:23:27;;;;;;;33.55;19.88;;;1.10;99.90;;;;;;5013717;28;20118;-77
2022/01/16 05:25:53;;;;;;;30.00;19.52;;;1.00;99.90;;;;;;5013011;28;20096;-78
2022/01/16 05:28:18;;;;;;;31.48;19.90;;;0.90;99.90;;;;;;5013038;28;20033;-77
2022/01/16 05:30:44;;;;;;;32.22;19.80;;;0.80;99.90;;;;;;5013097;28;20021;-76
2022/01/16 05:33:09;;;;;;;29.65;19.98;;;0.80;99.90;;;;;;5014080;28;20022;-76
2022/01/16 05:35:35;;;;;;;26.55;18.13;;;0.70;99.90;;;;;;5013879;28;20022;-77
2022/01/16 05:38:01;;;;;;;34.05;22.58;;;0.80;99.90;;;;;;5011844;28;20036;-77
2022/01/16 05:40:27;;;;;;;26.60;19.55;;;0.70;99.90;;;;;;5025060;28;20025;-77
2022/01/16 05:42:52;;;;;;;29.52;20.17;;;0.60;99.90;;;;;;5025243;28;20038;-76
2022/01/16 05:45:18;;;;;;;27.02;19.77;;;0.60;99.90;;;;;;5030566;28;20056;-76
2022/01/16 05:47:43;;;;;;;23.15;17.55;;;0.80;99.90;;;;;;5035456;28;20038;-77
2022/01/16 05:50:09;;;;;;;27.77;19.38;;;0.60;99.90;;;;;;5035175;28;20034;-77
2022/01/16 05:52:35;;;;;;;23.58;16.73;;;0.60;99.90;;;;;;5034930;28;20022;-76
2022/01/16 05:55:01;;;;;;;27.05;19.67;;;0.70;99.90;;;;;;5016476;28;20120;-77
2022/01/16 05:57:26;;;;;;;24.10;16.88;;;0.70;99.90;;;;;;5016290;28;20441;-78
2022/01/16 05:59:52;;;;;;;25.48;18.25;;;0.50;99.90;;;;;;5019094;28;20037;-77
2022/01/16 06:02:17;;;;;;;24.30;18.38;;;0.50;99.90;;;;;;5018925;28;20022;-77
2022/01/16 06:04:43;;;;;;;24.38;17.00;;;0.50;99.90;;;;;;5021352;28;20037;-76
2022/01/16 06:07:09;;;;;;;26.48;18.58;;;0.50;99.90;;;;;;5018879;28;20482;-77
2022/01/16 06:09:34;;;;;;;25.27;19.42;;;0.50;99.90;;;;;;5017163;28;20541;-78
2022/01/16 06:12:00;;;;;;;25.15;18.08;;;0.40;99.90;;;;;;5016424;28;20025;-77
2022/01/16 06:14:26;;;;;;;24.63;17.60;;;0.40;99.90;;;;;;5021015;28;20353;-77
2022/01/16 06:16:52;;;;;;;23.30;17.25;;;0.40;99.90;;;;;;5023541;28;20020;-77
2022/01/16 06:19:19;;;;;;;27.63;18.50;;;0.40;99.90;;;;;;5026603;28;20053;-77
2022/01/16 06:21:45;;;;;;;28.52;19.75;;;0.30;99.90;;;;;;5029908;28;20081;-77
2022/01/16 06:24:11;;;;;;;27.52;19.80;;;0.30;99.90;;;;;;5028336;28;20018;-77
2022/01/16 06:26:36;;;;;;;27.65;19.67;;;0.30;99.90;;;;;;5020157;28;20482;-78
2022/01/16 06:29:02;;;;;;;30.10;20.45;;;0.30;99.90;;;;;;5019286;28;20547;-77
2022/01/16 06:31:28;;;;;;;31.10;20.67;;;0.30;99.90;;;;;;5019447;28;20037;-78
2022/01/16 06:33:53;;;;;;;31.45;21.58;;;0.30;99.90;;;;;;5018028;28;20374;-77
2022/01/16 06:36:19;;;;;;;24.88;18.27;;;0.20;99.90;;;;;;5017643;28;20018;-77
2022/01/16 06:38:46;;;;;;;26.23;19.33;;;0.10;99.90;;;;;;5019690;28;20064;-78
2022/01/16 06:41:11;;;;;;;27.70;19.38;;;0.00;99.90;;;;;;5019724;28;20041;-78
2022/01/16 06:43:37;;;;;;;27.90;20.05;;;0.00;99.90;;;;;;5020122;28;20029;-78
2022/01/16 06:46:03;;;;;;;26.77;18.92;;;-0.10;99.90;;;;;;5019050;28;20113;-77
2022/01/16 06:48:30;;;;;;;26.23;18.50;;;0.00;99.90;;;;;;5017358;28;20021;-77
2022/01/16 06:50:56;;;;;;;27.08;18.13;;;0.10;99.90;;;;;;5016655;28;20496;-78
2022/01/16 06:53:21;;;;;;;26.20;18.30;;;0.00;99.90;;;;;;5018649;28;20018;-77
2022/01/16 06:55:47;;;;;;;28.23;18.98;;;0.10;99.90;;;;;;5017940;28;20026;-77
2022/01/16 06:58:12;;;;;;;25.50;18.98;;;0.00;99.90;;;;;;5018706;28;20038;-78
2022/01/16 07:00:38;;;;;;;28.77;19.88;;;0.00;99.90;;;;;;5019457;28;20029;-78
2022/01/16 07:03:04;;;;;;;28.27;18.77;;;-0.10;99.90;;;;;;5022148;28;20370;-77
2022/01/16 07:05:29;;;;;;;29.45;20.63;;;0.00;99.90;;;;;;5019020;28;20080;-77
2022/01/16 07:07:55;;;;;;;26.63;17.75;;;-0.10;99.90;;;;;;5018387;28;20505;-79
2022/01/16 07:10:20;;;;;;;26.80;16.83;;;-0.10;99.90;;;;;;5016923;28;20103;-77
2022/01/16 07:12:46;;;;;;;27.38;17.30;;;0.10;99.90;;;;;;5017742;28;20022;-77
2022/01/16 07:15:12;;;;;;;25.15;17.13;;;0.20;99.90;;;;;;5017339;28;20068;-77
2022/01/16 07:17:37;;;;;;;26.25;17.10;;;0.20;99.90;;;;;;5019401;28;20049;-76
2022/01/16 07:20:03;;;;;;;23.50;16.55;;;0.20;99.90;;;;;;5027481;28;20018;-78
2022/01/16 07:22:29;;;;;;;23.15;17.27;;;0.30;99.90;;;;;;5036822;28;20010;-78
2022/01/16 07:24:54;;;;;;;19.90;16.10;;;0.20;99.90;;;;;;5039071;28;20032;-79
2022/01/16 07:27:20;;;;;;;25.38;17.23;;;0.20;99.90;;;;;;5035197;28;20049;-78
2022/01/16 07:29:47;;;;;;;24.60;17.63;;;0.20;99.90;;;;;;5020685;28;20030;-77
2022/01/16 07:32:12;;;;;;;22.42;15.05;;;0.00;99.90;;;;;;5020283;28;20091;-77
2022/01/16 07:34:38;;;;;;;23.27;16.02;;;0.00;99.90;;;;;;5019511;28;20050;-77
2022/01/16 07:37:04;;;;;;;22.73;16.35;;;0.00;99.90;;;;;;5018025;28;20018;-78
2022/01/16 07:39:29;;;;;;;23.52;15.75;;;0.00;99.90;;;;;;5017603;28;20026;-76
2022/01/16 07:41:55;;;;;;;22.42;15.68;;;0.00;99.90;;;;;;5016642;28;20041;-77
2022/01/16 07:44:21;;;;;;;23.20;16.50;;;0.00;99.90;;;;;;5015978;28;20029;-78
2022/01/16 07:46:47;;;;;;;24.77;17.30;;;-0.10;99.90;;;;;;5016306;28;20088;-79
2022/01/16 07:49:12;;;;;;;27.98;17.90;;;-0.20;99.90;;;;;;5016204;28;20026;-77
2022/01/16 07:51:38;;;;;;;22.63;15.10;;;-0.20;99.90;;;;;;5017608;28;20026;-77
2022/01/16 07:54:04;;;;;;;22.65;15.70;;;-0.10;99.90;;;;;;5024729;28;20233;-78
2022/01/16 07:56:29;;;;;;;21.23;15.02;;;0.00;99.90;;;;;;5019090;28;20021;-77
2022/01/16 07:58:55;;;;;;;21.65;15.85;;;0.10;99.90;;;;;;5015593;28;20059;-77
2022/01/16 08:01:21;;;;;;;22.88;16.40;;;0.20;99.90;;;;;;5014551;28;20026;-77
2022/01/16 08:03:46;;;;;;;22.65;16.05;;;0.20;99.90;;;;;;5016433;28;20022;-77
2022/01/16 08:06:14;;;;;;;21.35;17.48;;;0.20;99.90;;;;;;5016054;28;20029;-78
2022/01/16 08:08:40;;;;;;;22.95;16.80;;;0.20;99.90;;;;;;5016887;28;20114;-78
2022/01/16 08:11:08;;;;;;;26.52;17.85;;;0.20;99.90;;;;;;5016172;28;20478;-78
2022/01/16 08:13:34;;;;;;;23.38;17.13;;;0.10;99.90;;;;;;5015324;28;20029;-78
2022/01/16 08:16:03;;;;;;;25.23;17.33;;;-0.10;99.90;;;;;;5017179;28;20113;-78
2022/01/16 08:18:29;;;;;;;24.55;16.20;;;-0.20;99.90;;;;;;5026965;28;20053;-78
2022/01/16 08:20:54;;;;;;;26.90;17.75;;;-0.40;99.90;;;;;;5018063;28;20029;-77
2022/01/16 08:23:20;;;;;;;24.92;17.70;;;-0.30;99.90;;;;;;5016866;28;20073;-78
2022/01/16 08:25:45;;;;;;;25.77;16.52;;;-0.10;99.90;;;;;;5015076;28;20021;-78
2022/01/16 08:28:11;;;;;;;27.75;19.73;;;0.10;99.90;;;;;;5016294;28;20033;-76
2022/01/16 08:30:36;;;;;;;29.25;18.92;;;0.30;99.90;;;;;;5016658;28;20017;-78
2022/01/16 08:33:02;;;;;;;24.15;17.45;;;0.20;99.90;;;;;;5015018;28;20038;-78
2022/01/16 08:35:27;;;;;;;27.60;17.38;;;0.20;99.90;;;;;;5015880;28;20017;-78
2022/01/16 08:37:53;;;;;;;25.02;17.85;;;0.40;99.90;;;;;;5015533;28;20413;-78
2022/01/16 08:40:19;;;;;;;26.17;18.20;;;0.20;99.90;;;;;;5014961;28;20366;-79
2022/01/16 08:42:45;;;;;;;28.23;17.38;;;0.40;99.90;;;;;;5013962;28;20494;-77
2022/01/16 08:45:11;;;;;;;25.80;18.58;;;0.50;99.90;;;;;;5015101;28;20048;-78
2022/01/16 08:47:38;;;;;;;25.27;18.42;;;0.80;99.90;;;;;;5015606;28;20030;-78
2022/01/16 08:50:05;;;;;;;30.33;19.13;;;0.90;99.90;;;;;;5013689;28;20021;-78
2022/01/16 08:52:31;;;;;;;25.80;16.35;;;1.00;99.90;;;;;;5014387;28;20081;-78
2022/01/16 08:54:57;;;;;;;24.73;16.30;;;0.90;99.90;;;;;;5012943;28;20053;-77
2022/01/16 08:57:22;;;;;;;26.20;17.58;;;0.70;99.90;;;;;;5018253;28;20038;-77
2022/01/16 08:59:48;;;;;;;22.77;17.15;;;0.50;99.90;;;;;;5021813;28;20030;-77
2022/01/16 09:02:14;;;;;;;26.23;17.90;;;0.60;99.90;;;;;;5014020;28;20036;-77
2022/01/16 09:04:40;;;;;;;27.00;17.95;;;0.40;99.90;;;;;;5015544;28;20049;-77
2022/01/16 09:07:05;;;;;;;29.98;18.60;;;0.40;99.90;;;;;;5013870;28;20026;-79
2022/01/16 09:09:31;;;;;;;26.65;19.77;;;0.40;99.90;;;;;;5015196;28;20025;-77
2022/01/16 09:11:57;;;;;;;27.65;18.35;;;0.40;99.90;;;;;;5016819;28;20033;-77
2022/01/16 09:14:22;;;;;;;27.80;19.90;;;0.40;99.90;;;;;;5014229;28;20030;-77
2022/01/16 09:16:48;;;;;;;26.30;18.77;;;0.50;99.90;;;;;;5012846;28;20038;-78
2022/01/16 09:19:14;;;;;;;32.40;20.40;;;0.50;99.90;;;;;;5014810;28;20493;-78
2022/01/16 09:21:39;;;;;;;25.90;19.30;;;0.60;99.90;;;;;;5015597;28;20046;-77
2022/01/16 09:24:05;;;;;;;35.00;21.20;;;0.60;99.90;;;;;;5018976;28;20029;-77
2022/01/16 09:26:31;;;;;;;27.17;19.33;;;0.70;99.90;;;;;;5018824;28;20082;-80
2022/01/16 09:28:57;;;;;;;28.15;20.67;;;0.70;99.90;;;;;;5040903;23;20085;-74
2022/01/16 09:31:22;;;;;;;25.17;18.08;;;1.10;99.90;;;;;;5019190;28;20022;-74
2022/01/16 09:33:48;;;;;;;27.30;18.40;;;1.40;99.90;;;;;;5024776;28;20034;-73
2022/01/16 09:36:14;;;;;;;27.88;18.73;;;1.40;99.90;;;;;;5024002;28;20056;-72
2022/01/16 09:38:40;;;;;;;27.83;18.48;;;1.30;99.90;;;;;;5022368;28;20030;-72
2022/01/16 09:41:06;;;;;;;26.98;19.05;;;1.10;99.90;;;;;;5022931;28;20448;-73
2022/01/16 09:43:34;;;;;;;28.27;19.73;;;0.90;99.90;;;;;;5021146;28;20053;-73
2022/01/16 09:46:01;;;;;;;30.02;19.45;;;0.90;99.90;;;;;;5021179;28;20085;-74
2022/01/16 09:48:27;;;;;;;29.17;18.83;;;1.00;99.90;;;;;;5025780;28;20036;-74
2022/01/16 09:50:52;;;;;;;28.73;19.73;;;1.00;99.90;;;;;;5025217;28;20071;-75
2022/01/16 09:53:19;;;;;;;28.73;20.15;;;1.10;99.90;;;;;;5021240;28;20025;-73
2022/01/16 09:55:45;;;;;;;29.17;20.50;;;1.30;99.90;;;;;;5020200;28;20117;-73
2022/01/16 09:58:10;;;;;;;30.15;20.67;;;1.20;99.90;;;;;;5026539;28;20485;-73
2022/01/16 10:00:36;;;;;;;29.88;19.75;;;1.40;99.90;;;;;;5024554;28;20038;-75
2022/01/16 10:03:03;;;;;;;26.42;19.10;;;1.70;99.90;;;;;;5017999;28;20030;-74
2022/01/16 10:05:30;;;;;;;30.45;20.25;;;1.70;99.90;;;;;;5020113;28;20090;-75
2022/01/16 10:08:01;;;;;;;26.48;18.92;;;1.70;99.90;;;;;;5018890;28;20037;-74
2022/01/16 10:10:29;;;;;;;30.20;19.95;;;1.50;99.90;;;;;;5018129;28;20045;-73
2022/01/16 10:13:03;;;;;;;30.63;19.33;;;1.70;99.90;;;;;;5018179;28;20030;-75
2022/01/16 10:15:29;;;;;;;24.95;18.77;;;1.80;99.90;;;;;;5016415;28;20425;-73
2022/01/16 10:17:58;;;;;;;24.48;17.75;;;1.80;99.90;;;;;;5015699;28;20101;-73
2022/01/16 10:20:25;;;;;;;25.13;18.55;;;1.90;99.90;;;;;;5017453;28;20025;-73
2022/01/16 10:22:54;;;;;;;27.55;18.40;;;2.00;99.90;;;;;;5016755;28;20094;-72
2022/01/16 10:25:41;;;;;;;28.65;18.13;;;2.10;99.90;;;;;;5016825;28;20029;-74
2022/01/16 10:28:24;;;;;;;24.75;18.33;;;1.90;99.90;;;;;;5016582;28;20121;-73
2022/01/16 10:30:53;;;;;;;28.23;18.83;;;1.80;99.90;;;;;;5015678;28;20034;-74
2022/01/16 10:33:21;;;;;;;28.95;20.48;;;1.80;99.90;;;;;;5015048;28;20472;-74
2022/01/16 10:35:50;;;;;;;25.20;19.60;;;1.80;99.90;;;;;;5016575;28;20018;-73
2022/01/16 10:38:36;;;;;;;27.67;20.48;;;1.90;99.90;;;;;;5019711;28;20438;-72
2022/01/16 10:41:01;;;;;;;25.58;18.88;;;2.00;99.90;;;;;;5016701;28;20046;-73
2022/01/16 10:43:44;;;;;;;28.85;19.55;;;2.00;99.90;;;;;;5015008;28;20509;-74
2022/01/16 10:46:12;;;;;;;26.35;19.13;;;2.20;99.90;;;;;;5024187;28;20034;-74
2022/01/16 10:48:38;;;;;;;24.38;18.88;;;2.60;99.90;;;;;;5020733;28;20030;-74
2022/01/16 10:51:04;;;;;;;27.98;19.35;;;2.60;99.90;;;;;;5023259;28;20022;-73
2022/01/16 10:53:32;;;;;;;24.13;18.92;;;2.90;99.90;;;;;;5023789;28;20042;-74
2022/01/16 10:56:06;;;;;;;26.55;18.45;;;3.00;99.90;;;;;;5017770;28;20022;-74
2022/01/16 10:58:35;;;;;;;23.63;18.25;;;3.00;99.90;;;;;;5018394;28;20077;-73
2022/01/16 11:01:07;;;;;;;24.95;18.27;;;2.80;99.90;;;;;;5018232;28;20053;-73
2022/01/16 11:03:41;;;;;;;23.23;17.50;;;2.80;99.90;;;;;;5019139;28;20038;-72
2022/01/16 11:06:07;;;;;;;25.40;19.52;;;2.80;99.90;;;;;;5020365;28;20426;-73
2022/01/16 11:08:34;;;;;;;28.38;19.90;;;2.90;99.90;;;;;;5017607;28;20021;-73
2022/01/16 11:11:00;;;;;;;25.52;19.17;;;2.80;99.90;;;;;;5017468;28;20052;-73
2022/01/16 11:13:32;;;;;;;24.30;18.73;;;2.90;99.90;;;;;;5020628;28;20018;-74
2022/01/16 11:16:02;;;;;;;25.88;19.80;;;2.90;99.90;;;;;;5016427;28;20080;-74
2022/01/16 11:18:27;;;;;;;24.38;18.73;;;3.10;99.90;;;;;;5017174;28;20027;-73
2022/01/16 11:23:44;;;;;;;30.38;18.95;;;3.40;99.90;;;;;;5016500;28;20030;-73
2022/01/16 11:26:09;;;;;;;27.07;20.27;;;3.30;99.90;;;;;;5016875;28;20033;-73
2022/01/16 11:28:35;;;;;;;27.23;19.65;;;3.50;99.90;;;;;;5016484;28;20037;-72
2022/01/16 11:31:04;;;;;;;30.15;20.20;;;3.60;99.90;;;;;;5016058;28;20040;-74
2022/01/16 11:33:33;;;;;;;26.20;18.70;;;3.70;99.90;;;;;;5020897;28;20018;-73
2022/01/16 11:36:02;;;;;;;27.05;19.98;;;3.70;99.90;;;;;;5016169;28;20022;-73
2022/01/16 11:38:34;;;;;;;25.88;19.75;;;3.70;99.90;;;;;;5017877;28;20116;-73
2022/01/16 11:41:14;;;;;;;27.58;19.55;;;3.50;99.90;;;;;;5015442;28;20033;-73
2022/01/16 11:43:45;;;;;;;25.77;20.85;;;3.50;99.90;;;;;;5016519;28;20125;-74
2022/01/16 11:46:19;;;;;;;28.05;20.42;;;3.40;99.90;;;;;;5013586;28;20066;-74
2022/01/16 11:49:06;;;;;;;30.75;20.83;;;3.30;99.90;;;;;;5014622;28;20505;-73
2022/01/16 11:51:35;;;;;;;26.15;18.73;;;3.30;99.90;;;;;;5013250;28;20030;-74
2022/01/16 11:54:22;;;;;;;26.95;20.52;;;3.20;99.90;;;;;;5014354;28;20033;-73
2022/01/16 11:56:50;;;;;;;34.40;23.35;;;3.20;99.90;;;;;;5015469;28;20033;-73
2022/01/16 11:59:28;;;;;;;33.00;22.42;;;3.00;99.90;;;;;;5017703;28;20018;-73
2022/01/16 12:02:03;;;;;;;38.55;22.65;;;2.90;99.90;;;;;;5017906;28;20018;-74
2022/01/16 12:04:29;;;;;;;34.15;22.65;;;2.90;99.90;;;;;;5019195;28;20371;-73
2022/01/16 12:07:12;;;;;;;36.65;24.02;;;3.00;99.90;;;;;;5017843;28;20040;-73
2022/01/16 12:09:40;;;;;;;35.45;22.52;;;3.10;99.90;;;;;;5020407;28;20053;-73
2022/01/16 12:12:12;;;;;;;40.08;23.92;;;3.40;99.90;;;;;;5018938;28;20389;-74
2022/01/16 12:14:55;;;;;;;34.92;22.40;;;3.50;99.90;;;;;;5016587;28;20022;-74
2022/01/16 12:17:31;;;;;;;33.08;21.00;;;3.70;99.90;;;;;;5016640;28;20029;-72
2022/01/16 12:19:59;;;;;;;30.83;21.65;;;3.90;99.90;;;;;;5024030;28;20094;-73
2022/01/16 12:22:46;;;;;;;33.03;22.23;;;4.10;99.90;;;;;;5029092;28;20060;-73
2022/01/16 12:25:28;;;;;;;26.45;17.48;;;4.10;99.90;;;;;;5026592;28;20052;-73
2022/01/16 12:27:55;;;;;;;27.42;18.20;;;3.90;99.90;;;;;;5033582;28;20041;-73
2022/01/16 12:30:45;;;;;;;25.20;17.35;;;3.90;99.90;;;;;;5029534;28;20137;-73
2022/01/16 12:33:24;;;;;;;27.87;18.23;;;3.80;99.90;;;;;;5024773;28;20537;-73
2022/01/16 12:35:55;;;;;;;25.13;17.17;;;3.80;99.90;;;;;;5025731;28;20149;-73
2022/01/16 12:38:29;;;;;;;25.45;16.73;;;3.80;99.90;;;;;;5025448;28;20026;-72
2022/01/16 12:41:00;;;;;;;23.80;16.50;;;3.80;99.90;;;;;;5023015;28;20106;-73
2022/01/16 12:43:32;;;;;;;20.90;14.60;;;3.90;99.90;;;;;;5018314;28;20041;-73
2022/01/16 12:46:03;;;;;;;23.27;15.27;;;3.80;99.90;;;;;;5017587;28;20029;-74
2022/01/16 12:48:29;;;;;;;18.65;13.73;;;3.90;99.90;;;;;;5019227;28;20033;-73
2022/01/16 12:51:03;;;;;;;21.05;13.88;;;4.00;99.90;;;;;;5015587;28;20042;-74
2022/01/16 12:53:46;;;;;;;18.58;13.45;;;4.00;99.90;;;;;;5025823;28;20383;-73
2022/01/16 12:56:21;;;;;;;17.60;12.52;;;4.00;99.90;;;;;;5015180;28;20040;-74
2022/01/16 12:58:48;;;;;;;19.05;11.48;;;4.20;99.90;;;;;;5016403;28;20083;-74
2022/01/16 13:01:13;;;;;;;20.80;13.95;;;4.30;99.90;;;;;;5017689;28;20092;-74
2022/01/16 13:03:42;;;;;;;16.67;12.45;;;4.30;99.90;;;;;;5016283;28;20470;-74
2022/01/16 13:06:44;;;;;;;15.15;11.27;;;4.30;99.90;;;;;;5013758;28;20041;-73
2022/01/16 13:09:11;;;;;;;14.90;12.18;;;4.20;99.90;;;;;;4993767;28;20041;-74
2022/01/16 13:11:41;;;;;;;17.20;11.40;;;4.20;99.90;;;;;;5014312;28;20026;-73
2022/01/16 13:14:10;;;;;;;20.30;13.30;;;4.30;99.90;;;;;;5026395;28;20022;-73
2022/01/16 13:16:42;;;;;;;14.65;11.50;;;4.30;99.90;;;;;;5021618;28;20025;-74
2022/01/16 13:19:26;;;;;;;15.90;12.52;;;4.30;99.90;;;;;;5023146;28;20030;-74
2022/01/16 13:22:05;;;;;;;18.48;12.00;;;4.40;99.90;;;;;;5020270;28;20083;-72
2022/01/16 13:24:37;;;;;;;17.25;12.10;;;4.30;99.90;;;;;;5017567;28;20080;-73